Time;durP1;ratioP1;P1;durP2;ratioP2;P2;SDS_P1;SDS_P2;PMS_P1;PMS_P2;Temp;Humidity;BMP_temperature;BMP_pressure;BME280_temperature;BME280_humidity;BME280_pressure;Samples;Min_cycle;Max_cycle;Signal;HPM_P1;HPM_P2
2022/05/19 00:02:09;;;;;;;9.63;2.75;;;;;;;16.88;76.07;101046.81;6154817;23;20090;-72
2022/05/19 00:05:12;;;;;;;3.83;2.10;;;;;;;16.73;76.51;101034.66;6153842;23;20083;-73
2022/05/19 00:08:16;;;;;;;4.70;1.83;;;;;;;16.85;75.97;101033.81;6153602;23;20405;-73
2022/05/19 00:11:28;;;;;;;4.60;2.30;;;;;;;16.84;76.07;101036.56;6154105;23;20409;-72
2022/05/19 00:14:32;;;;;;;5.68;2.30;;;;;;;16.80;76.45;101043.84;6153843;23;20361;-72
2022/05/19 00:17:35;;;;;;;7.18;2.25;;;;;;;16.70;76.17;101034.84;6153924;23;20021;-72
2022/05/19 00:20:39;;;;;;;12.02;2.72;;;;;;;16.66;76.21;101039.50;6154771;23;20028;-73
2022/05/19 00:23:42;;;;;;;5.25;2.53;;;;;;;16.63;76.37;101025.69;6154948;23;20465;-72
2022/05/19 00:26:45;;;;;;;4.13;2.25;;;;;;;16.65;76.18;101031.69;6155073;23;20088;-72
2022/05/19 00:29:49;;;;;;;3.80;2.00;;;;;;;16.58;76.42;101036.53;6154621;23;20028;-72
2022/05/19 00:32:54;;;;;;;4.78;1.90;;;;;;;16.53;76.70;101033.41;6154832;23;20027;-72
2022/05/19 00:35:58;;;;;;;5.85;2.00;;;;;;;16.54;76.66;101028.97;6154655;23;20024;-72
2022/05/19 00:39:03;;;;;;;4.55;2.10;;;;;;;16.47;76.40;101028.53;6153759;23;20077;-72
2022/05/19 00:45:49;;;;;;;6.40;2.13;;;;;;;16.35;77.00;101024.94;6153406;23;20484;-72
2022/05/19 00:48:57;;;;;;;6.32;3.03;;;;;;;16.34;76.65;101028.53;6153049;23;20021;-72
2022/05/19 00:52:28;;;;;;;4.18;2.15;;;;;;;16.25;76.78;101029.16;6154531;23;20028;-72
2022/05/19 00:55:39;;;;;;;10.25;3.47;;;;;;;16.15;77.34;101022.81;6154365;23;20345;-72
2022/05/19 00:58:54;;;;;;;6.53;2.70;;;;;;;16.26;76.87;101025.56;6152837;23;20027;-72
2022/05/19 01:01:58;;;;;;;11.65;2.58;;;;;;;16.24;76.84;101027.44;6153518;23;20448;-72
2022/05/19 01:05:07;;;;;;;5.25;2.65;;;;;;;16.32;76.27;101025.16;6155120;23;20448;-72
2022/05/19 01:08:14;;;;;;;5.90;2.83;;;;;;;16.14;76.93;101031.66;6154588;23;20533;-72
2022/05/19 01:11:18;;;;;;;6.03;2.70;;;;;;;16.09;77.30;101031.16;6154087;23;20076;-72
2022/05/19 01:14:22;;;;;;;7.55;3.53;;;;;;;16.16;76.92;101024.50;6154116;23;20111;-73
2022/05/19 01:17:27;;;;;;;6.60;2.20;;;;;;;16.15;76.50;101036.03;6136066;23;20493;-72
2022/05/19 01:20:31;;;;;;;3.60;2.17;;;;;;;16.07;77.03;101030.41;6153807;23;20023;-72
2022/05/19 01:24:26;;;;;;;3.85;2.67;;;;;;;16.10;76.94;101038.94;6152877;23;20136;-72
2022/05/19 01:27:33;;;;;;;5.13;2.25;;;;;;;15.98;77.36;101045.88;6144881;23;20032;-72
2022/05/19 01:30:40;;;;;;;3.75;2.40;;;;;;;16.00;77.08;101044.00;6153663;23;20520;-72
2022/05/19 01:33:43;;;;;;;4.38;2.20;;;;;;;15.98;77.17;101037.97;6153280;23;20060;-73
2022/05/19 01:36:47;;;;;;;3.83;2.30;;;;;;;15.94;76.93;101030.38;6153526;23;20104;-72
2022/05/19 01:40:06;;;;;;;4.72;2.42;;;;;;;15.90;77.22;101032.38;6152590;23;20079;-73
2022/05/19 01:43:34;;;;;;;5.68;3.03;;;;;;;15.85;77.21;101021.28;6152285;23;20088;-72
2022/05/19 01:46:39;;;;;;;8.18;2.95;;;;;;;15.80;77.12;101023.41;6152996;23;20108;-72
2022/05/19 01:49:55;;;;;;;7.20;2.00;;;;;;;15.73;77.96;101016.81;6155498;23;20028;-72
2022/05/19 01:53:15;;;;;;;5.90;2.83;;;;;;;15.72;77.71;101020.41;6154937;23;20397;-72
2022/05/19 01:56:54;;;;;;;7.15;3.13;;;;;;;15.68;77.76;101024.19;6156018;23;20096;-72
2022/05/19 02:00:10;;;;;;;6.00;2.65;;;;;;;15.65;77.56;101022.56;6154677;23;20461;-72
2022/05/19 02:03:43;;;;;;;5.15;2.67;;;;;;;15.67;77.76;101019.88;6156291;23;20460;-72
2022/05/19 02:06:53;;;;;;;6.38;2.58;;;;;;;15.62;78.00;101024.56;6155633;23;20021;-72
2022/05/19 02:10:07;;;;;;;3.67;2.38;;;;;;;15.58;78.26;101021.28;6154100;23;20083;-72
2022/05/19 02:13:11;;;;;;;5.55;2.35;;;;;;;15.60;77.80;101027.28;6154001;23;20187;-72
2022/05/19 02:16:17;;;;;;;5.63;2.20;;;;;;;15.57;77.93;101024.84;6155316;23;20097;-72
2022/05/19 02:19:26;;;;;;;4.95;3.00;;;;;;;15.64;77.70;101023.53;6154476;23;20063;-72
2022/05/19 02:22:35;;;;;;;5.25;2.08;;;;;;;15.63;77.43;101020.97;6154907;23;20028;-72
2022/05/19 02:25:46;;;;;;;5.70;2.25;;;;;;;15.55;77.70;101019.69;6154139;23;20072;-72
2022/05/19 02:29:01;;;;;;;14.23;2.50;;;;;;;15.51;77.93;101022.63;6156002;23;20338;-72
2022/05/19 02:32:06;;;;;;;8.60;2.55;;;;;;;15.47;77.89;101021.13;6155836;23;20103;-72
2022/05/19 02:35:12;;;;;;;5.10;2.78;;;;;;;15.42;78.09;101010.91;6155842;23;20031;-72
2022/05/19 02:38:18;;;;;;;4.25;2.25;;;;;;;15.45;77.83;101008.06;6154191;23;20097;-72
2022/05/19 02:41:21;;;;;;;11.93;2.90;;;;;;;15.58;77.13;101003.69;6155543;23;20028;-72
2022/05/19 02:44:25;;;;;;;9.85;2.85;;;;;;;15.51;77.40;101007.66;6154004;23;20099;-72
2022/05/19 02:47:29;;;;;;;4.78;2.13;;;;;;;15.38;77.75;100996.25;6155880;23;20024;-72
2022/05/19 02:50:33;;;;;;;4.68;2.47;;;;;;;15.24;77.93;100999.75;6154326;23;20357;-72
2022/05/19 02:53:37;;;;;;;4.47;2.70;;;;;;;15.16;78.20;100999.41;6155775;23;20103;-72
2022/05/19 02:56:40;;;;;;;6.15;2.42;;;;;;;15.25;78.28;100997.94;6155406;23;20028;-72
2022/05/19 02:59:44;;;;;;;3.28;2.33;;;;;;;15.40;77.69;100998.75;6155233;23;20398;-72
2022/05/19 03:02:48;;;;;;;4.93;3.35;;;;;;;15.35;77.56;100999.06;6155218;23;20049;-72
2022/05/19 03:05:52;;;;;;;6.13;2.50;;;;;;;15.33;77.62;100988.63;6154436;23;20029;-72
2022/05/19 03:08:57;;;;;;;5.15;2.50;;;;;;;15.41;77.37;100997.81;6153635;23;20076;-72
2022/05/19 03:12:01;;;;;;;4.03;2.20;;;;;;;15.30;77.79;100993.25;6154330;23;20027;-72
2022/05/19 03:15:05;;;;;;;5.65;3.20;;;;;;;15.20;78.22;100994.78;6155035;23;20323;-72
2022/05/19 03:18:09;;;;;;;5.05;2.42;;;;;;;15.13;78.67;100996.97;6154639;23;20101;-72
2022/05/19 03:21:12;;;;;;;5.88;2.30;;;;;;;15.09;78.57;101001.59;6155311;23;20397;-72
2022/05/19 03:24:16;;;;;;;6.20;3.15;;;;;;;15.19;78.23;101000.97;6155038;23;20084;-72
2022/05/19 03:27:20;;;;;;;3.40;2.53;;;;;;;15.06;78.57;101007.03;6153035;23;20096;-72
2022/05/19 03:30:24;;;;;;;4.43;2.45;;;;;;;15.05;78.60;101013.22;6155010;23;20064;-72
2022/05/19 03:33:28;;;;;;;4.47;2.53;;;;;;;15.02;78.84;101000.25;6153240;23;20354;-72
2022/05/19 03:36:31;;;;;;;4.93;2.83;;;;;;;14.97;78.98;101010.25;6154606;23;20024;-72
2022/05/19 03:39:36;;;;;;;3.35;2.55;;;;;;;14.98;78.51;101008.47;6096509;23;20033;-72
2022/05/19 03:42:39;;;;;;;8.50;2.95;;;;;;;14.88;78.82;100995.03;6092462;23;20036;-72
2022/05/19 03:45:43;;;;;;;3.70;2.40;;;;;;;14.95;78.61;101003.38;6090819;23;20025;-72
2022/05/19 03:48:47;;;;;;;4.97;2.50;;;;;;;14.95;78.08;101009.50;6090355;23;20025;-72
2022/05/19 03:51:50;;;;;;;6.25;2.80;;;;;;;14.83;78.98;101018.16;6089950;23;20114;-72
2022/05/19 03:54:55;;;;;;;5.22;2.45;;;;;;;14.84;78.93;101019.88;6089277;23;20029;-72
2022/05/19 03:57:58;;;;;;;4.63;1.90;;;;;;;14.86;78.90;101021.44;6090682;23;20029;-72
2022/05/19 04:01:02;;;;;;;4.90;2.70;;;;;;;14.87;78.76;101020.53;6091276;23;20077;-72
2022/05/19 04:04:05;;;;;;;4.65;3.13;;;;;;;14.88;78.53;101029.25;6091196;23;20045;-72
2022/05/19 04:07:11;;;;;;;3.47;2.15;;;;;;;14.88;78.69;101031.88;6089902;23;20183;-72
2022/05/19 04:10:15;;;;;;;4.78;3.03;;;;;;;14.80;78.86;101027.09;6090326;23;20024;-72
2022/05/19 04:13:18;;;;;;;;;;;;;;;14.78;78.93;101022.88;6090495;23;20090;-72
2022/05/19 04:16:21;;;;;;;4.53;2.97;;;;;;;14.77;79.02;101034.31;6090329;23;20285;-72
2022/05/19 04:19:24;;;;;;;4.65;2.53;;;;;;;14.78;78.84;101034.25;6091528;23;20514;-72
2022/05/19 04:22:30;;;;;;;3.78;2.65;;;;;;;14.73;79.43;101028.41;6089764;23;20092;-72
2022/05/19 04:25:34;;;;;;;9.80;2.60;;;;;;;14.77;79.40;101031.69;6089703;23;20030;-72
2022/05/19 04:28:37;;;;;;;4.00;2.47;;;;;;;14.85;79.07;101030.28;6091289;23;20026;-72
2022/05/19 04:31:40;;;;;;;3.28;2.15;;;;;;;14.89;79.31;101036.22;6092009;23;20420;-72
2022/05/19 04:34:44;;;;;;;5.88;3.35;;;;;;;14.86;78.98;101031.97;6092929;23;20101;-72
2022/05/19 04:37:47;;;;;;;6.63;2.72;;;;;;;14.91;78.84;101034.34;6106146;23;20411;-72
2022/05/19 04:40:51;;;;;;;4.10;2.90;;;;;;;14.96;78.87;101032.25;6148900;23;20032;-72
2022/05/19 04:43:57;;;;;;;7.05;2.70;;;;;;;14.85;79.35;101034.72;6148990;23;20028;-72
2022/05/19 04:47:01;;;;;;;3.95;2.47;;;;;;;14.86;79.83;101037.25;6147569;23;20116;-72
2022/05/19 04:50:05;;;;;;;4.90;2.53;;;;;;;14.99;79.19;101029.41;6148347;23;20079;-72
2022/05/19 04:53:08;;;;;;;5.35;3.35;;;;;;;14.95;79.13;101025.28;6149644;23;20024;-72
2022/05/19 04:56:12;;;;;;;4.30;3.13;;;;;;;14.94;79.36;101028.88;6148069;23;20119;-72
2022/05/19 04:59:16;;;;;;;3.58;2.63;;;;;;;14.96;79.93;101037.50;6149619;23;20560;-72
2022/05/19 05:02:20;;;;;;;4.60;2.80;;;;;;;14.99;79.81;101037.31;6147563;23;20121;-72
2022/05/19 05:05:23;;;;;;;5.72;3.45;;;;;;;15.10;79.23;101034.03;6147581;23;20330;-72
2022/05/19 05:08:28;;;;;;;6.13;3.00;;;;;;;15.19;78.99;101044.00;6148611;23;20056;-72
2022/05/19 05:11:32;;;;;;;5.00;3.13;;;;;;;15.25;79.23;101038.34;6149334;23;20024;-72
2022/05/19 05:14:35;;;;;;;4.03;2.50;;;;;;;15.26;79.16;101034.75;6149133;23;20026;-72
2022/05/19 05:17:38;;;;;;;7.75;2.97;;;;;;;15.25;79.45;101037.47;6148906;23;20084;-73
2022/05/19 05:20:43;;;;;;;4.93;3.13;;;;;;;15.25;79.58;101037.47;6148327;23;20063;-72
2022/05/19 05:23:48;;;;;;;9.20;3.13;;;;;;;15.20;79.64;101042.19;6149056;23;20095;-72
2022/05/19 05:26:52;;;;;;;4.57;2.92;;;;;;;15.29;79.26;101041.63;6152026;23;20024;-72
2022/05/19 05:29:56;;;;;;;6.18;3.05;;;;;;;15.32;79.10;101042.25;6152050;23;20460;-73
2022/05/19 05:33:06;;;;;;;4.00;2.78;;;;;;;15.33;79.31;101051.84;6149046;23;20024;-72
2022/05/19 05:36:10;;;;;;;6.70;3.08;;;;;;;15.28;79.16;101058.34;6150687;23;20052;-72
2022/05/19 05:39:14;;;;;;;5.13;3.15;;;;;;;15.45;79.15;101044.97;6149077;23;20032;-72
2022/05/19 05:42:17;;;;;;;5.95;2.92;;;;;;;15.61;79.00;101046.59;6149755;23;20529;-72
2022/05/19 05:45:21;;;;;;;7.45;3.58;;;;;;;15.78;78.34;101047.22;6149405;23;20144;-72
2022/05/19 05:48:24;;;;;;;6.55;3.03;;;;;;;15.83;78.63;101041.66;6147323;23;20020;-72
2022/05/19 05:51:28;;;;;;;7.05;2.90;;;;;;;15.91;78.96;101049.88;6148360;23;20100;-72
2022/05/19 05:54:32;;;;;;;4.63;3.35;;;;;;;15.96;78.93;101045.16;6148655;23;20040;-72
2022/05/19 05:57:36;;;;;;;5.20;3.03;;;;;;;16.03;78.86;101049.06;6149113;23;20476;-72
2022/05/19 06:00:41;;;;;;;6.55;3.33;;;;;;;16.03;79.62;101056.13;6149562;23;20039;-72
2022/05/19 06:03:46;;;;;;;6.60;3.33;;;;;;;16.29;78.47;101051.75;6147931;23;20029;-72
2022/05/19 06:06:49;;;;;;;5.28;3.00;;;;;;;16.45;77.94;101057.66;6148245;23;20560;-72
2022/05/19 06:09:54;;;;;;;6.47;3.00;;;;;;;16.50;77.89;101060.00;6147986;23;20090;-72
2022/05/19 06:12:57;;;;;;;7.45;3.45;;;;;;;16.60;78.10;101049.66;6148544;23;20140;-72
2022/05/19 06:16:01;;;;;;;4.68;3.00;;;;;;;16.71;78.60;101047.94;6129777;23;20032;-73
2022/05/19 06:19:04;;;;;;;6.15;3.67;;;;;;;16.95;77.29;101048.06;6130589;23;20460;-73
2022/05/19 06:22:08;;;;;;;6.10;3.10;;;;;;;17.13;77.59;101048.56;6149370;23;20361;-72
2022/05/19 06:25:18;;;;;;;5.07;3.03;;;;;;;17.21;77.38;101045.34;6149149;23;20056;-73
2022/05/19 06:28:21;;;;;;;5.10;2.88;;;;;;;17.36;77.59;101048.72;6149195;23;20024;-73
2022/05/19 06:31:25;;;;;;;6.53;2.90;;;;;;;17.51;77.17;101044.09;6147230;23;20113;-73
2022/05/19 06:34:28;;;;;;;7.38;2.63;;;;;;;17.62;76.87;101038.88;6142664;23;20033;-73
2022/05/19 06:37:32;;;;;;;6.72;3.17;;;;;;;17.79;76.46;101041.13;6095069;23;1219393;-73
2022/05/19 06:40:35;;;;;;;5.20;3.08;;;;;;;17.90;75.82;101032.41;6149720;23;20025;-73
2022/05/19 06:43:39;;;;;;;7.45;3.03;;;;;;;18.00;76.74;101022.81;6151277;23;20020;-73
2022/05/19 06:46:45;;;;;;;4.10;2.90;;;;;;;18.04;76.78;101026.06;6148613;23;20108;-72
2022/05/19 06:49:51;;;;;;;4.63;3.00;;;;;;;18.13;75.74;101017.44;6150006;23;20087;-73
2022/05/19 06:52:59;;;;;;;5.88;2.83;;;;;;;18.25;75.85;101012.97;6149868;23;20365;-73
2022/05/19 06:56:04;;;;;;;5.05;3.25;;;;;;;18.32;75.63;101007.13;6153619;23;20036;-73
2022/05/19 06:59:07;;;;;;;5.63;3.08;;;;;;;18.42;74.35;101012.53;6153852;23;20461;-73
2022/05/19 07:02:12;;;;;;;5.07;2.55;;;;;;;18.47;73.79;101012.16;6154386;23;20024;-73
2022/05/19 07:05:18;;;;;;;5.45;3.08;;;;;;;18.46;72.48;101013.16;6155498;23;20024;-73
2022/05/19 07:08:22;;;;;;;6.57;3.50;;;;;;;18.53;71.04;101015.19;6155184;23;20096;-73
2022/05/19 07:11:28;;;;;;;8.02;3.30;;;;;;;18.62;70.60;101010.97;6155711;23;20394;-73
2022/05/19 07:14:33;;;;;;;8.95;3.03;;;;;;;18.63;70.01;101009.16;6155382;23;20036;-73
2022/05/19 07:17:38;;;;;;;5.90;2.92;;;;;;;18.78;69.78;101008.84;6155312;23;20393;-73
2022/05/19 07:20:47;;;;;;;8.10;3.10;;;;;;;18.87;70.12;100999.31;6155318;23;20024;-73
2022/05/19 07:23:51;;;;;;;5.53;2.97;;;;;;;18.99;70.61;101005.47;6155147;23;20059;-73
2022/05/19 07:26:55;;;;;;;5.85;2.92;;;;;;;19.01;68.88;101009.66;6155560;23;20024;-72
2022/05/19 07:30:01;;;;;;;7.05;2.92;;;;;;;19.07;68.33;101003.03;6154758;23;20080;-72
2022/05/19 07:33:06;;;;;;;6.10;2.92;;;;;;;19.08;68.76;100999.44;6155395;23;20152;-72
2022/05/19 07:36:09;;;;;;;7.97;3.20;;;;;;;19.11;67.89;100987.72;6155284;23;20025;-72
2022/05/19 07:39:13;;;;;;;8.15;3.03;;;;;;;19.23;68.03;100986.72;6154549;23;20108;-72
2022/05/19 07:42:16;;;;;;;5.90;3.25;;;;;;;19.29;68.16;100986.22;6154639;23;20149;-72
2022/05/19 07:45:20;;;;;;;5.78;3.00;;;;;;;19.39;67.34;100983.66;6152442;23;20083;-72
2022/05/19 07:48:23;;;;;;;4.68;2.78;;;;;;;19.48;67.38;100975.78;6151646;23;20479;-72
2022/05/19 07:51:31;;;;;;;4.50;2.63;;;;;;;19.60;67.52;100979.25;6153288;23;20027;-72
2022/05/19 07:54:35;;;;;;;4.95;2.72;;;;;;;19.69;67.07;100973.22;6152465;23;20349;-72
2022/05/19 07:57:38;;;;;;;5.90;2.75;;;;;;;19.69;67.28;100967.91;6152629;23;20084;-72
2022/05/19 08:00:42;;;;;;;5.13;2.83;;;;;;;19.88;67.46;100971.66;6153811;23;20029;-72
2022/05/19 08:03:45;;;;;;;9.77;2.78;;;;;;;20.00;67.01;100975.91;6154186;23;20260;-72
2022/05/19 08:06:49;;;;;;;5.25;2.70;;;;;;;20.09;65.21;100969.81;6155017;23;20125;-72
2022/05/19 08:16:38;;;;;;;;;;;;;;;20.50;64.30;100962.75;6155126;23;20076;-72
2022/05/19 08:19:42;;;;;;;4.75;2.60;;;;;;;20.65;63.52;100964.13;6155216;23;19915;-72
2022/05/19 08:22:45;;;;;;;9.38;2.88;;;;;;;20.65;62.55;100969.44;6154641;23;20071;-73
2022/05/19 08:25:49;;;;;;;3.75;2.20;;;;;;;20.79;63.74;100962.06;6154582;23;20516;-73
2022/05/19 08:28:52;;;;;;;4.43;2.33;;;;;;;20.87;64.25;100964.88;6154163;23;20397;-73
2022/05/19 08:31:55;;;;;;;7.68;2.63;;;;;;;21.02;64.25;100962.66;6154783;23;20029;-73
2022/05/19 08:34:59;;;;;;;3.65;2.03;;;;;;;21.16;63.14;100964.09;6154454;23;20060;-73
2022/05/19 08:38:03;;;;;;;5.00;2.60;;;;;;;21.24;62.03;100951.78;6154101;23;20028;-73
2022/05/19 08:41:08;;;;;;;4.18;2.10;;;;;;;21.27;62.72;100955.97;6154310;23;20389;-73
2022/05/19 08:44:29;;;;;;;5.25;2.40;;;;;;;21.45;63.30;100957.00;6153228;23;20027;-73
2022/05/19 08:47:34;;;;;;;4.95;2.40;;;;;;;21.47;62.00;100952.38;6153600;23;20035;-73
2022/05/19 08:50:59;;;;;;;5.45;2.38;;;;;;;21.56;60.71;100951.53;6136484;23;20072;-73
2022/05/19 08:54:05;;;;;;;7.10;2.30;;;;;;;21.74;60.73;100942.84;6154165;23;20048;-73
2022/05/19 08:57:09;;;;;;;4.55;2.53;;;;;;;21.90;60.03;100948.41;6153257;23;20024;-73
2022/05/19 09:00:34;;;;;;;8.80;2.33;;;;;;;22.12;59.65;100931.25;6153297;23;20128;-73
2022/05/19 09:03:49;;;;;;;4.25;2.15;;;;;;;22.28;59.40;100936.00;6155457;23;20025;-73
2022/05/19 09:19:23;;;;;;;4.75;2.42;;;;;;;22.18;59.40;100930.72;5168971;27;20133;-71
2022/05/19 09:22:33;;;;;;;;;;;;;;;22.23;58.43;100933.75;5171123;27;20073;-71
2022/05/19 09:25:43;;;;;;;7.97;2.13;;;;;;;22.33;59.27;100928.41;5170754;27;19957;-71
2022/05/19 09:28:47;;;;;;;5.80;2.33;;;;;;;22.46;59.58;100926.25;5168387;27;20048;-71
2022/05/19 09:31:54;;;;;;;5.32;2.03;;;;;;;22.62;59.49;100917.63;5150655;27;20126;-71
2022/05/19 09:35:18;;;;;;;7.70;2.20;;;;;;;22.71;59.45;100923.88;5153212;27;20094;-71
2022/05/19 09:38:26;;;;;;;5.00;2.20;;;;;;;22.88;56.36;100917.75;5170400;27;20071;-71
2022/05/19 09:41:40;;;;;;;4.50;2.03;;;;;;;23.12;57.21;100919.00;5161053;27;20557;-71
2022/05/19 09:44:50;;;;;;;5.35;2.03;;;;;;;23.23;57.79;100918.78;5170782;27;20042;-71
2022/05/19 09:48:01;;;;;;;6.22;1.88;;;;;;;23.15;57.65;100914.19;5173475;27;20090;-71
2022/05/19 09:51:10;;;;;;;6.57;1.95;;;;;;;23.08;59.17;100912.28;5171667;27;20114;-71
2022/05/19 09:54:15;;;;;;;6.15;1.92;;;;;;;23.01;58.15;100913.91;5170886;27;20045;-71
2022/05/19 09:57:25;;;;;;;7.10;2.30;;;;;;;23.02;58.07;100920.91;5166016;27;20038;-71
2022/05/19 10:00:40;;;;;;;7.82;2.13;;;;;;;23.14;58.66;100925.88;5162144;27;20059;-71
2022/05/19 10:03:48;;;;;;;4.45;1.63;;;;;;;23.40;57.19;100914.41;5169670;27;20503;-71
2022/05/19 10:07:06;;;;;;;5.03;1.88;;;;;;;23.53;53.87;100900.69;5154849;27;20095;-71
2022/05/19 10:10:23;;;;;;;7.00;2.42;;;;;;;23.57;54.06;100891.34;5165852;27;20086;-71
2022/05/19 10:13:40;;;;;;;4.57;1.85;;;;;;;23.69;52.82;100892.81;5159036;27;20096;-71
2022/05/19 10:17:25;;;;;;;6.97;2.38;;;;;;;24.00;55.13;100887.84;5164214;27;20045;-71
2022/05/19 10:21:05;;;;;;;5.70;1.98;;;;;;;24.25;52.90;100885.25;5046287;28;20462;-71
2022/05/19 10:24:44;;;;;;;5.97;1.80;;;;;;;24.22;50.52;100881.09;5081864;27;20038;-72
2022/05/19 10:32:19;;;;;;;5.63;1.77;;;;;;;24.45;48.59;100869.84;5130725;27;20074;-71
2022/05/19 10:35:36;;;;;;;6.88;1.80;;;;;;;24.49;46.74;100855.16;5148490;27;20390;-73
2022/05/19 10:39:03;;;;;;;7.65;2.25;;;;;;;24.67;48.39;100850.53;5143516;27;20042;-73
2022/05/19 10:57:06;;;;;;;4.40;1.88;;;;;;;25.25;44.73;100830.03;4999768;28;20143;-71
2022/05/19 11:00:18;;;;;;;6.78;1.67;;;;;;;25.27;44.26;100836.91;4995976;28;20081;-71
2022/05/19 11:03:53;;;;;;;4.72;1.77;;;;;;;25.43;44.22;100822.66;5021795;28;20107;-71
2022/05/19 11:07:27;;;;;;;3.72;1.65;;;;;;;25.60;43.38;100822.63;5021923;28;20461;-71
2022/05/19 11:10:34;;;;;;;6.40;1.88;;;;;;;25.70;43.88;100824.09;5023144;28;20053;-71
2022/05/19 11:14:25;;;;;;;3.78;1.88;;;;;;;25.73;43.85;100813.03;5021926;28;20108;-72
2022/05/19 11:18:00;;;;;;;7.75;2.20;;;;;;;25.66;44.31;100806.72;5024545;28;20073;-71
2022/05/19 11:21:26;;;;;;;10.70;2.13;;;;;;;25.60;43.67;100807.41;5024233;28;20624;-71
2022/05/19 11:26:23;;;;;;;4.80;1.83;;;;;;;25.59;44.33;100795.03;5023693;28;20048;-72
2022/05/19 11:28:18;;;;;;;4.55;2.05;;;;;;;25.57;44.13;100783.63;5019181;28;20552;-71
2022/05/19 11:31:46;;;;;;;4.00;1.95;;;;;;;25.79;45.42;100794.63;5022462;28;20164;-71
2022/05/19 11:34:56;;;;;;;6.13;2.13;;;;;;;25.91;45.11;100782.53;5019005;28;20677;-71
2022/05/19 11:38:36;;;;;;;7.80;2.58;;;;;;;25.64;45.75;100781.94;5013346;28;21279;-71
2022/05/19 11:41:41;;;;;;;5.00;2.13;;;;;;;25.74;45.12;100782.56;5016016;28;20045;-71
2022/05/19 11:44:46;;;;;;;7.88;2.45;;;;;;;25.82;45.46;100772.88;5004452;28;20050;-71
2022/05/19 11:55:30;;;;;;;8.40;2.05;;;;;;;26.44;43.69;100762.97;4995872;28;20501;-71
2022/05/19 11:58:37;;;;;;;4.65;2.00;;;;;;;26.46;43.93;100773.53;4990486;28;20560;-71
2022/05/19 12:01:47;;;;;;;6.97;2.13;;;;;;;26.69;43.00;100754.78;4977832;28;20508;-71
2022/05/19 12:04:58;;;;;;;4.93;2.47;;;;;;;26.51;42.95;100755.09;4989944;28;20045;-71
2022/05/19 12:08:23;;;;;;;8.70;1.95;;;;;;;26.60;42.72;100759.38;4990404;28;20109;-71
2022/05/19 12:11:50;;;;;;;5.05;1.73;;;;;;;26.70;42.61;100761.81;5010033;28;20037;-71
2022/05/19 12:15:17;;;;;;;5.53;1.77;;;;;;;26.82;44.05;100755.00;5011851;28;20555;-71
2022/05/19 12:18:37;;;;;;;4.65;1.83;;;;;;;26.96;44.22;100761.44;5010704;28;20041;-71
2022/05/19 12:21:41;;;;;;;5.85;2.10;;;;;;;27.15;42.03;100759.28;5001619;28;20052;-71
2022/05/19 12:25:00;;;;;;;6.97;1.95;;;;;;;27.39;41.64;100767.09;5007003;28;20045;-71
2022/05/19 12:28:28;;;;;;;8.13;1.90;;;;;;;27.35;41.50;100757.75;5007654;28;20622;-71
2022/05/19 12:35:08;;;;;;;6.03;2.85;;;;;;;27.58;41.60;100755.78;5005724;28;20130;-71
2022/05/19 12:38:44;;;;;;;7.07;2.28;;;;;;;27.84;41.92;100756.38;5008895;28;20044;-71
2022/05/19 12:41:48;;;;;;;6.35;2.20;;;;;;;27.85;41.48;100758.84;5007645;28;20072;-71
2022/05/19 12:45:13;;;;;;;4.38;1.67;;;;;;;27.75;41.04;100755.59;5010457;28;20048;-71
2022/05/19 12:48:45;;;;;;;4.25;1.85;;;;;;;27.78;41.72;100747.19;5011682;28;20080;-71
2022/05/19 12:52:33;;;;;;;5.15;1.90;;;;;;;28.19;41.56;100757.41;5010283;28;20400;-71
2022/05/19 12:56:04;;;;;;;7.93;1.92;;;;;;;28.35;42.41;100749.09;4945400;28;20513;-73
2022/05/19 12:59:26;;;;;;;6.60;1.90;;;;;;;28.50;41.34;100741.00;5016539;28;20065;-72
2022/05/19 13:02:54;;;;;;;5.57;1.97;;;;;;;28.75;41.09;100741.44;5009940;28;20096;-73
2022/05/19 13:06:03;;;;;;;8.82;2.30;;;;;;;28.92;40.93;100737.44;5011323;28;20120;-73
2022/05/19 13:09:08;;;;;;;10.18;2.92;;;;;;;29.25;40.31;100726.09;5009818;28;20115;-73
2022/05/19 13:12:18;;;;;;;8.35;2.30;;;;;;;29.27;39.89;100726.72;5009767;28;20057;-73
2022/05/19 13:15:28;;;;;;;7.05;2.83;;;;;;;29.70;39.03;100726.56;4995394;28;20504;-73
2022/05/19 13:18:34;;;;;;;4.05;2.22;;;;;;;29.58;39.48;100720.91;5009786;28;20104;-73
2022/05/19 13:22:03;;;;;;;8.52;2.72;;;;;;;28.88;41.22;100714.63;4999163;28;20088;-73
2022/05/19 13:25:12;;;;;;;8.48;2.53;;;;;;;28.89;41.12;100704.69;5009512;28;20044;-73
2022/05/19 13:32:04;;;;;;;5.55;2.22;;;;;;;29.10;40.33;100685.81;5003406;28;20045;-73
2022/05/19 13:35:18;;;;;;;9.48;2.42;;;;;;;29.43;40.19;100688.69;4998146;28;20127;-73
2022/05/19 13:38:23;;;;;;;6.05;2.00;;;;;;;29.97;41.68;100694.31;5009752;28;20104;-73
2022/05/19 13:41:26;;;;;;;8.13;2.42;;;;;;;30.57;38.33;100684.47;5011012;28;20509;-74
2022/05/19 13:44:41;;;;;;;7.30;2.72;;;;;;;30.56;38.58;100680.91;5009378;28;20140;-73
2022/05/19 13:47:46;;;;;;;8.43;2.60;;;;;;;31.54;36.60;100672.06;5011179;28;20103;-73
2022/05/19 13:50:52;;;;;;;8.07;2.20;;;;;;;31.64;36.16;100669.72;5009990;28;20121;-73
2022/05/19 13:53:59;;;;;;;6.72;2.42;;;;;;;33.05;33.81;100665.78;5008973;28;20109;-73
2022/05/19 13:57:06;;;;;;;10.70;2.50;;;;;;;33.19;33.69;100652.94;5007681;28;20405;-73
2022/05/19 14:00:12;;;;;;;6.45;2.60;;;;;;;33.82;32.64;100657.16;5006418;28;20112;-73
2022/05/19 14:03:19;;;;;;;5.13;2.67;;;;;;;33.80;33.02;100667.44;5009326;28;20766;-73
2022/05/19 14:06:27;;;;;;;12.80;3.05;;;;;;;35.06;30.08;100651.81;5011554;28;20057;-73
2022/05/19 14:09:43;;;;;;;6.88;2.88;;;;;;;35.50;29.86;100656.78;5000974;28;20076;-73
2022/05/19 14:13:00;;;;;;;10.15;2.80;;;;;;;36.12;27.69;100646.00;4993226;28;20050;-73
2022/05/19 14:16:12;;;;;;;5.47;2.88;;;;;;;36.03;28.56;100650.22;4987600;28;20088;-73
2022/05/19 14:19:37;;;;;;;7.35;2.83;;;;;;;33.77;32.81;100657.03;5011677;28;20068;-73
2022/05/19 14:22:42;;;;;;;8.27;3.20;;;;;;;36.00;29.42;100661.56;5012479;28;20057;-73
2022/05/19 14:25:53;;;;;;;5.88;2.70;;;;;;;38.72;25.32;100658.41;5012359;28;20111;-74
2022/05/19 14:28:58;;;;;;;;;;;;;;;38.91;24.80;100656.91;5011966;28;20548;-73
2022/05/19 14:32:21;;;;;;;11.38;3.47;;;;;;;38.99;24.16;100652.84;5008964;28;19920;-74
2022/05/19 14:35:49;;;;;;;5.00;2.90;;;;;;;39.25;24.54;100635.47;4998691;28;20068;-74
2022/05/19 14:39:02;;;;;;;5.53;2.47;;;;;;;36.28;28.23;100638.91;5007694;28;20137;-74
2022/05/19 14:45:36;;;;;;;8.10;2.95;;;;;;;37.43;26.61;100626.38;5011977;28;20048;-74
2022/05/19 14:48:42;;;;;;;5.93;2.20;;;;;;;34.45;31.52;100637.63;5011834;28;20049;-74
2022/05/19 14:51:48;;;;;;;11.57;2.63;;;;;;;31.28;36.20;100627.88;5011605;28;20077;-73
2022/05/19 14:54:53;;;;;;;7.00;2.67;;;;;;;30.04;39.46;100628.59;5011299;28;20081;-73
2022/05/19 14:58:00;;;;;;;8.52;3.17;;;;;;;29.67;39.01;100643.41;4992233;28;20484;-73
2022/05/19 15:01:03;;;;;;;6.35;2.28;;;;;;;29.09;42.55;100653.69;4992372;28;20050;-73
2022/05/19 15:04:06;;;;;;;8.65;2.55;;;;;;;28.38;46.64;100670.72;4992383;28;20129;-73
2022/05/19 15:07:23;;;;;;;16.83;3.25;;;;;;;28.14;46.50;100674.63;4991992;28;20099;-73
2022/05/19 15:10:28;;;;;;;7.40;3.15;;;;;;;28.24;45.97;100675.16;4991310;28;20512;-73
2022/05/19 15:13:32;;;;;;;7.95;3.13;;;;;;;28.02;48.16;100693.13;5000792;28;20071;-73
2022/05/19 15:16:35;;;;;;;9.77;2.80;;;;;;;27.84;45.48;100726.81;5001157;28;20080;-74
2022/05/19 15:19:39;;;;;;;13.80;2.67;;;;;;;27.17;41.96;100762.63;5010999;28;20044;-73
2022/05/19 15:22:43;;;;;;;10.65;2.28;;;;;;;26.44;40.83;100735.34;5011587;28;20097;-73
2022/05/19 15:25:47;;;;;;;13.80;1.90;;;;;;;25.91;39.28;100712.88;5011006;28;20111;-74
2022/05/19 15:28:54;;;;;;;9.40;1.95;;;;;;;25.58;40.07;100722.88;5008857;28;20653;-73
2022/05/19 15:31:58;;;;;;;10.75;1.60;;;;;;;25.47;39.92;100732.13;5014155;28;20568;-74
2022/05/19 15:35:05;;;;;;;6.63;1.80;;;;;;;25.05;41.12;100750.09;5011542;28;20049;-74
2022/05/19 15:38:11;;;;;;;6.70;1.63;;;;;;;24.48;43.73;100781.31;5014664;28;20048;-73
2022/05/19 15:41:18;;;;;;;13.55;1.52;;;;;;;22.94;56.75;100857.63;5013348;28;20119;-73
2022/05/19 15:44:21;;;;;;;6.10;1.60;;;;;;;22.29;58.43;100857.75;5014018;28;20176;-73